createdAt,value
2019-05-18T00:00:23.274Z,1005.33
2019-05-18T00:01:23.263Z,1005.31
2019-05-18T00:02:23.247Z,1005.25
2019-05-18T00:03:23.273Z,1005.18
2019-05-18T00:04:23.298Z,1005.22
2019-05-18T00:05:23.292Z,1005.18
2019-05-18T00:06:23.302Z,1005.15
2019-05-18T00:07:23.296Z,1005.17
2019-05-18T00:08:23.304Z,1005.18
2019-05-18T00:09:23.308Z,1005.18
2019-05-18T00:10:23.323Z,1005.17
2019-05-18T00:11:23.354Z,1005.15
2019-05-18T00:12:23.329Z,1005.17
2019-05-18T00:13:23.399Z,1005.17
2019-05-18T00:14:23.366Z,1005.18
2019-05-18T00:15:23.348Z,1005.12
2019-05-18T00:16:23.364Z,1005.15
2019-05-18T00:17:25.530Z,1005.15
2019-05-18T00:18:23.371Z,1005.15
2019-05-18T00:19:23.374Z,1005.16
2019-05-18T00:20:23.460Z,1005.17
2019-05-18T00:21:23.390Z,1005.17
2019-05-18T00:22:23.493Z,1005.16
2019-05-18T00:23:23.404Z,1005.18
2019-05-18T00:24:23.416Z,1005.17
2019-05-18T00:25:23.451Z,1005.22
2019-05-18T00:26:23.429Z,1005.23
2019-05-18T00:27:23.437Z,1005.20
2019-05-18T00:28:23.498Z,1005.23
2019-05-18T00:29:23.456Z,1005.21
2019-05-18T00:30:23.467Z,1005.18
2019-05-18T00:31:23.481Z,1005.18
2019-05-18T00:32:23.474Z,1005.14
2019-05-18T00:33:23.544Z,1005.14
2019-05-18T00:34:23.920Z,1005.14
2019-05-18T00:35:23.510Z,1005.13
2019-05-18T00:36:23.516Z,1005.20
2019-05-18T00:37:23.518Z,1005.17
2019-05-18T00:38:23.538Z,1005.16
2019-05-18T00:39:23.586Z,1005.18
2019-05-18T00:40:23.557Z,1005.18
2019-05-18T00:41:23.595Z,1005.21
2019-05-18T00:42:23.556Z,1005.19
2019-05-18T00:43:23.568Z,1005.18
2019-05-18T00:44:23.565Z,1005.19
2019-05-18T00:45:23.584Z,1005.19
2019-05-18T00:46:23.592Z,1005.19
2019-05-18T00:47:23.639Z,1005.16
2019-05-18T00:48:23.629Z,1005.15
2019-05-18T00:49:23.604Z,1005.12
2019-05-18T00:50:23.608Z,1005.14
2019-05-18T00:51:23.638Z,1005.15
2019-05-18T00:52:23.620Z,1005.16
2019-05-18T00:53:23.656Z,1005.17
2019-05-18T00:54:23.673Z,1005.21
2019-05-18T00:55:23.643Z,1005.20
2019-05-18T00:56:23.682Z,1005.15
2019-05-18T00:57:23.678Z,1005.15
2019-05-18T00:58:23.665Z,1005.14
2019-05-18T00:59:23.730Z,1005.10
2019-05-18T01:00:23.692Z,1005.08
2019-05-18T01:01:23.741Z,1005.13
2019-05-18T01:02:23.722Z,1005.15
2019-05-18T01:03:23.706Z,1005.17
2019-05-18T01:04:23.700Z,1005.18
2019-05-18T01:05:23.756Z,1005.15
2019-05-18T01:06:23.749Z,1005.16
2019-05-18T01:07:23.764Z,1005.16
2019-05-18T01:08:23.754Z,1005.19
2019-05-18T01:09:23.755Z,1005.18
2019-05-18T01:10:23.777Z,1005.21
2019-05-18T01:11:23.798Z,1005.17
2019-05-18T01:12:23.807Z,1005.16
2019-05-18T01:13:23.791Z,1005.12
2019-05-18T01:14:23.794Z,1005.15
2019-05-18T01:15:23.812Z,1005.18
2019-05-18T01:16:23.857Z,1005.20
2019-05-18T01:17:23.841Z,1005.15
2019-05-18T01:18:23.842Z,1005.20
2019-05-18T01:19:23.838Z,1005.14
2019-05-18T01:20:24.069Z,1005.10
2019-05-18T01:21:23.851Z,1005.13
2019-05-18T01:22:23.862Z,1005.11
2019-05-18T01:23:23.887Z,1005.07
2019-05-18T01:24:23.868Z,1005.10
2019-05-18T01:25:23.878Z,1005.09
2019-05-18T01:26:23.878Z,1005.09
2019-05-18T01:27:23.894Z,1005.04
2019-05-18T01:28:23.970Z,1005.08
2019-05-18T01:29:23.907Z,1005.10
2019-05-18T01:30:23.925Z,1005.10
2019-05-18T01:31:23.916Z,1005.08
2019-05-18T01:32:23.934Z,1005.09
2019-05-18T01:33:23.935Z,1005.08
2019-05-18T01:34:23.950Z,1005.08
2019-05-18T01:35:23.988Z,1005.04
2019-05-18T01:36:23.968Z,1005.08
2019-05-18T01:37:23.971Z,1005.10
2019-05-18T01:38:23.985Z,1005.11
2019-05-18T01:39:23.982Z,1005.09
2019-05-18T01:40:23.998Z,1005.09
2019-05-18T01:41:24.047Z,1005.10
2019-05-18T01:42:24.004Z,1005.11
2019-05-18T01:43:24.018Z,1005.15
2019-05-18T01:44:24.020Z,1005.16
2019-05-18T01:45:24.029Z,1005.14
2019-05-18T01:46:24.028Z,1005.16
2019-05-18T01:47:24.031Z,1005.12
2019-05-18T01:48:24.103Z,1005.14
2019-05-18T01:49:24.105Z,1005.09
2019-05-18T01:50:28.775Z,1005.12
2019-05-18T01:51:24.088Z,1005.14
2019-05-18T01:52:24.076Z,1005.11
2019-05-18T01:53:24.077Z,1005.15
2019-05-18T01:54:24.082Z,1005.13
2019-05-18T01:55:24.097Z,1005.16
2019-05-18T01:56:24.110Z,1005.16
2019-05-18T01:57:24.118Z,1005.15
2019-05-18T01:58:24.117Z,1005.15
2019-05-18T01:59:24.125Z,1005.09
2019-05-18T02:00:24.113Z,1005.09
2019-05-18T02:01:24.181Z,1005.10
2019-05-18T02:02:24.153Z,1005.09
2019-05-18T02:03:25.976Z,1005.10
2019-05-18T02:04:24.178Z,1005.09
2019-05-18T02:05:24.166Z,1005.06
2019-05-18T02:06:24.191Z,1005.09
2019-05-18T02:07:24.197Z,1005.06
2019-05-18T02:08:24.189Z,1005.07
2019-05-18T02:09:24.197Z,1005.07
2019-05-18T02:10:24.196Z,1005.13
2019-05-18T02:11:24.214Z,1005.13
2019-05-18T02:12:24.267Z,1005.16
2019-05-18T02:13:24.214Z,1005.15
2019-05-18T02:14:24.273Z,1005.14
2019-05-18T02:15:24.240Z,1005.18
2019-05-18T02:16:24.256Z,1005.16
2019-05-18T02:17:24.389Z,1005.19
2019-05-18T02:18:29.217Z,1005.14
2019-05-18T02:19:24.895Z,1005.22
2019-05-18T02:20:24.276Z,1005.14
2019-05-18T02:21:24.277Z,1005.19
2019-05-18T02:22:24.283Z,1005.15
2019-05-18T02:23:24.292Z,1005.20
2019-05-18T02:24:24.287Z,1005.22
2019-05-18T02:25:24.351Z,1005.23
2019-05-18T02:26:24.302Z,1005.21
2019-05-18T02:27:24.314Z,1005.22
2019-05-18T02:28:24.383Z,1005.20
2019-05-18T02:29:24.330Z,1005.20
2019-05-18T02:30:24.364Z,1005.20
2019-05-18T02:31:24.357Z,1005.23
2019-05-18T02:32:24.343Z,1005.25
2019-05-18T02:33:24.409Z,1005.22
2019-05-18T02:34:24.368Z,1005.24
2019-05-18T02:35:24.370Z,1005.24
2019-05-18T02:36:24.375Z,1005.29
2019-05-18T02:37:24.382Z,1005.26
2019-05-18T02:38:24.481Z,1005.19
2019-05-18T02:39:24.435Z,1005.16
2019-05-18T02:40:24.398Z,1005.14
2019-05-18T02:41:24.418Z,1005.11
2019-05-18T02:42:24.419Z,1005.12
2019-05-18T02:43:24.468Z,1005.13
2019-05-18T02:44:24.472Z,1005.04
2019-05-18T02:45:24.453Z,1005.04
2019-05-18T02:46:24.449Z,1005.05
2019-05-18T02:47:24.439Z,1004.99
2019-05-18T02:48:24.451Z,1005.06
2019-05-18T02:49:24.464Z,1005.03
2019-05-18T02:50:28.782Z,1005.02
2019-05-18T02:51:24.601Z,1004.99
2019-05-18T02:52:24.505Z,1005.01
2019-05-18T02:53:24.486Z,1005.03
2019-05-18T02:54:24.491Z,1005.04
2019-05-18T02:55:24.554Z,1005.05
2019-05-18T02:56:24.591Z,1005.03
2019-05-18T02:57:24.577Z,1005.04
2019-05-18T02:58:24.525Z,1005.00
2019-05-18T02:59:24.580Z,1005.01
2019-05-18T03:00:24.735Z,1005.05
2019-05-18T03:01:24.541Z,1005.04
2019-05-18T03:02:24.605Z,1005.09
2019-05-18T03:03:24.615Z,1005.06
2019-05-18T03:04:24.565Z,1005.12
2019-05-18T03:05:24.571Z,1005.06
2019-05-18T03:06:24.604Z,1005.07
2019-05-18T03:07:24.586Z,1005.10
2019-05-18T03:08:24.605Z,1005.06
2019-05-18T03:09:24.593Z,1005.07
2019-05-18T03:10:24.659Z,1005.06
2019-05-18T03:11:24.623Z,1005.08
2019-05-18T03:12:24.639Z,1005.06
2019-05-18T03:13:24.633Z,1005.04
2019-05-18T03:14:24.650Z,1005.03
2019-05-18T03:15:24.648Z,1005.03
2019-05-18T03:16:24.672Z,1005.02
2019-05-18T03:17:24.661Z,1005.04
2019-05-18T03:18:24.676Z,1005.09
2019-05-18T03:19:24.676Z,1005.09
2019-05-18T03:20:24.680Z,1005.09
2019-05-18T03:21:24.723Z,1005.13
2019-05-18T03:22:24.688Z,1005.13
2019-05-18T03:23:24.764Z,1005.11
2019-05-18T03:24:24.711Z,1005.15
2019-05-18T03:25:24.718Z,1005.15
2019-05-18T03:26:24.727Z,1005.16
2019-05-18T03:27:24.726Z,1005.19
2019-05-18T03:28:24.743Z,1005.17
2019-05-18T03:29:24.831Z,1005.19
2019-05-18T03:30:24.766Z,1005.15
2019-05-18T03:31:24.757Z,1005.14
2019-05-18T03:32:24.775Z,1005.11
2019-05-18T03:33:28.963Z,1005.08
2019-05-18T03:34:24.782Z,1005.09
2019-05-18T03:35:24.791Z,1005.09
2019-05-18T03:36:24.792Z,1005.08
2019-05-18T03:37:24.793Z,1005.09
2019-05-18T03:38:24.817Z,1005.03
2019-05-18T03:39:24.813Z,1005.08
2019-05-18T03:40:24.879Z,1005.05
2019-05-18T03:41:24.869Z,1005.06
2019-05-18T03:42:24.885Z,1005.07
2019-05-18T03:43:24.879Z,1005.07
2019-05-18T03:44:24.843Z,1005.11
2019-05-18T03:45:24.892Z,1005.10
2019-05-18T03:46:24.968Z,1005.16
2019-05-18T03:47:24.847Z,1005.13
2019-05-18T03:48:24.869Z,1005.08
2019-05-18T03:49:27.500Z,1005.08
2019-05-18T03:50:24.950Z,1005.08
2019-05-18T03:51:25.043Z,1005.06
2019-05-18T03:52:24.895Z,1005.09
2019-05-18T03:53:24.908Z,1005.05
2019-05-18T03:54:24.998Z,1005.03
2019-05-18T03:55:24.918Z,1005.08
2019-05-18T03:56:24.928Z,1005.11
2019-05-18T03:57:24.927Z,1005.12
2019-05-18T03:58:24.941Z,1005.13
2019-05-18T03:59:25.032Z,1005.15
2019-05-18T04:00:25.057Z,1005.14
2019-05-18T04:01:24.962Z,1005.16
2019-05-18T04:02:24.992Z,1005.14
2019-05-18T04:03:24.978Z,1005.15
2019-05-18T04:04:24.994Z,1005.17
2019-05-18T04:05:25.010Z,1005.18
2019-05-18T04:06:25.000Z,1005.14
2019-05-18T04:07:25.060Z,1005.14
2019-05-18T04:08:25.009Z,1005.10
2019-05-18T04:09:25.027Z,1005.10
2019-05-18T04:10:25.048Z,1005.10
2019-05-18T04:11:25.080Z,1005.07
2019-05-18T04:12:25.126Z,1005.05
2019-05-18T04:13:25.050Z,1005.05
2019-05-18T04:14:25.058Z,1004.99
2019-05-18T04:15:25.117Z,1004.99
2019-05-18T04:16:25.106Z,1004.96
2019-05-18T04:17:25.072Z,1005.04
2019-05-18T04:18:25.073Z,1005.03
2019-05-18T04:19:25.097Z,1005.08
2019-05-18T04:20:25.098Z,1005.05
2019-05-18T04:21:25.224Z,1005.06
2019-05-18T04:22:25.151Z,1005.04
2019-05-18T04:23:25.123Z,1005.04
2019-05-18T04:24:25.185Z,1005.06
2019-05-18T04:25:25.135Z,1005.03
2019-05-18T04:26:25.198Z,1005.06
2019-05-18T04:27:25.282Z,1005.08
2019-05-18T04:28:25.207Z,1005.07
2019-05-18T04:29:25.195Z,1005.04
2019-05-18T04:30:25.215Z,1005.07
2019-05-18T04:31:25.190Z,1005.09
2019-05-18T04:32:25.251Z,1005.05
2019-05-18T04:33:25.204Z,1005.12
2019-05-18T04:34:25.212Z,1005.10
2019-05-18T04:35:25.300Z,1005.15
2019-05-18T04:36:25.220Z,1005.18
2019-05-18T04:37:25.315Z,1005.20
2019-05-18T04:38:25.262Z,1005.05
2019-05-18T04:39:25.253Z,1005.10
2019-05-18T04:40:25.271Z,1005.10
2019-05-18T04:41:25.299Z,1005.06
2019-05-18T04:42:25.300Z,1005.02
2019-05-18T04:43:25.304Z,1005.02
2019-05-18T04:44:25.311Z,1005.03
2019-05-18T04:45:25.329Z,1005.04
2019-05-18T04:46:25.639Z,1005.02
2019-05-18T04:47:25.369Z,1005.07
2019-05-18T04:48:25.394Z,1005.09
2019-05-18T04:49:25.340Z,1005.09
2019-05-18T04:50:25.358Z,1005.06
2019-05-18T04:51:26.102Z,1005.06
2019-05-18T04:52:25.366Z,1005.03
2019-05-18T04:53:25.374Z,1005.06
2019-05-18T04:54:25.375Z,1005.12
2019-05-18T04:55:25.438Z,1005.20
2019-05-18T04:56:25.405Z,1005.28
2019-05-18T04:57:25.467Z,1005.34
2019-05-18T04:58:25.426Z,1005.33
2019-05-18T04:59:25.415Z,1005.29
2019-05-18T05:00:25.426Z,1005.33
2019-05-18T05:01:25.447Z,1005.38
2019-05-18T05:02:25.441Z,1005.51
2019-05-18T05:03:25.462Z,1005.62
2019-05-18T05:04:25.451Z,1005.62
2019-05-18T05:05:25.463Z,1005.64
2019-05-18T05:06:25.474Z,1005.62
2019-05-18T05:07:25.525Z,1005.63
2019-05-18T05:08:25.486Z,1005.78
2019-05-18T05:09:25.491Z,1005.90
2019-05-18T05:10:25.510Z,1006.10
2019-05-18T05:11:25.511Z,1006.18
2019-05-18T05:12:25.568Z,1006.21
2019-05-18T05:13:25.542Z,1006.14
2019-05-18T05:14:25.563Z,1006.15
2019-05-18T05:15:25.541Z,1006.25
2019-05-18T05:16:25.640Z,1006.28
2019-05-18T05:17:25.568Z,1006.21
2019-05-18T05:18:25.587Z,1006.25
2019-05-18T05:19:25.615Z,1006.26
2019-05-18T05:20:25.710Z,1006.24
2019-05-18T05:21:25.635Z,1006.24
2019-05-18T05:22:25.642Z,1006.18
2019-05-18T05:23:25.692Z,1006.20
2019-05-18T05:24:25.661Z,1006.23
2019-05-18T05:25:25.662Z,1006.24
2019-05-18T05:26:25.712Z,1006.32
2019-05-18T05:27:25.716Z,1006.31
2019-05-18T05:28:25.725Z,1006.36
2019-05-18T05:29:25.774Z,1006.34
2019-05-18T05:30:25.731Z,1006.34
2019-05-18T05:31:25.846Z,1006.38
2019-05-18T05:32:25.762Z,1006.37
2019-05-18T05:33:25.749Z,1006.37
2019-05-18T05:34:25.831Z,1006.46
2019-05-18T05:35:25.898Z,1006.42
2019-05-18T05:36:25.843Z,1006.37
2019-05-18T05:37:25.921Z,1006.39
2019-05-18T05:38:25.831Z,1006.37
2019-05-18T05:39:25.868Z,1006.37
2019-05-18T05:40:26.282Z,1006.45
2019-05-18T05:41:25.872Z,1006.46
2019-05-18T05:42:25.965Z,1006.51
2019-05-18T05:43:25.887Z,1006.49
2019-05-18T05:44:26.083Z,1006.54
2019-05-18T05:45:26.247Z,1006.57
2019-05-18T05:46:25.961Z,1006.55
2019-05-18T05:47:25.934Z,1006.57
2019-05-18T05:48:25.967Z,1006.55
2019-05-18T05:49:25.974Z,1006.54
2019-05-18T05:50:35.204Z,1006.62
2019-05-18T05:51:26.148Z,1006.59
2019-05-18T05:52:26.017Z,1006.55
2019-05-18T05:53:26.030Z,1006.61
2019-05-18T05:54:26.243Z,1006.68
2019-05-18T05:55:26.067Z,1006.70
2019-05-18T05:56:26.125Z,1006.60
2019-05-18T05:57:26.104Z,1006.57
2019-05-18T05:58:26.120Z,1006.56
2019-05-18T05:59:26.153Z,1006.57
2019-05-18T06:00:26.159Z,1006.54
2019-05-18T06:01:26.208Z,1006.54
2019-05-18T06:02:26.167Z,1006.53
2019-05-18T06:03:26.205Z,1006.54
2019-05-18T06:04:26.221Z,1006.53
2019-05-18T06:05:26.244Z,1006.51
2019-05-18T06:06:26.302Z,1006.54
2019-05-18T06:07:26.316Z,1006.56
2019-05-18T06:08:26.297Z,1006.55
2019-05-18T06:09:26.299Z,1006.57
2019-05-18T06:10:26.312Z,1006.58
2019-05-18T06:11:26.324Z,1006.58
2019-05-18T06:12:26.377Z,1006.55
2019-05-18T06:13:26.375Z,1006.59
2019-05-18T06:14:26.395Z,1006.58
2019-05-18T06:15:26.431Z,1006.57
2019-05-18T06:16:26.403Z,1006.55
2019-05-18T06:17:26.431Z,1006.58
2019-05-18T06:18:26.466Z,1006.61
2019-05-18T06:19:26.491Z,1006.61
2019-05-18T06:20:26.483Z,1006.59
2019-05-18T06:21:26.502Z,1006.52
2019-05-18T06:22:26.565Z,1006.50
2019-05-18T06:23:26.607Z,1006.49
2019-05-18T06:24:26.576Z,1006.52
2019-05-18T06:25:26.570Z,1006.48
2019-05-18T06:26:26.591Z,1006.48
2019-05-18T06:27:26.625Z,1006.47
2019-05-18T06:28:26.670Z,1006.48
2019-05-18T06:29:26.642Z,1006.47
2019-05-18T06:30:26.653Z,1006.45
2019-05-18T06:31:26.689Z,1006.49
2019-05-18T06:32:26.688Z,1006.46
2019-05-18T06:33:26.733Z,1006.44
2019-05-18T06:34:26.718Z,1006.46
2019-05-18T06:35:26.746Z,1006.41
2019-05-18T06:36:26.786Z,1006.48
2019-05-18T06:37:26.795Z,1006.47
2019-05-18T06:38:26.853Z,1006.45
2019-05-18T06:39:26.875Z,1006.44
2019-05-18T06:40:26.849Z,1006.31
2019-05-18T06:41:26.879Z,1006.17
2019-05-18T06:42:26.906Z,1006.10
2019-05-18T06:43:26.906Z,1006.11
2019-05-18T06:44:26.959Z,1005.95
2019-05-18T06:45:27.068Z,1005.77
2019-05-18T06:46:26.947Z,1005.54
2019-05-18T06:47:28.477Z,1005.41
2019-05-18T06:48:26.975Z,1005.40
2019-05-18T06:49:27.023Z,1005.40
2019-05-18T06:50:27.056Z,1005.37
2019-05-18T06:51:27.020Z,1005.32
2019-05-18T06:52:27.059Z,1005.30
2019-05-18T06:53:27.075Z,1005.27
2019-05-18T06:54:27.080Z,1005.31
2019-05-18T06:55:27.110Z,1005.30
2019-05-18T06:56:27.140Z,1005.23
2019-05-18T06:57:27.128Z,1005.22
2019-05-18T06:58:27.164Z,1005.20
2019-05-18T06:59:27.194Z,1005.16
2019-05-18T07:00:27.251Z,1005.20
2019-05-18T07:01:27.205Z,1005.24
2019-05-18T07:02:27.226Z,1005.24
2019-05-18T07:03:27.276Z,1005.25
2019-05-18T07:04:27.259Z,1005.24
2019-05-18T07:05:27.302Z,1005.22
2019-05-18T07:06:27.292Z,1005.24
2019-05-18T07:07:27.338Z,1005.24
2019-05-18T07:08:27.319Z,1005.24
2019-05-18T07:09:27.362Z,1005.21
2019-05-18T07:10:27.385Z,1005.19
2019-05-18T07:11:27.431Z,1005.21
2019-05-18T07:12:27.428Z,1005.22
2019-05-18T07:13:27.422Z,1005.23
2019-05-18T07:14:27.428Z,1005.18
2019-05-18T07:15:27.452Z,1005.20
2019-05-18T07:16:27.497Z,1005.21
2019-05-18T07:17:27.439Z,1005.20
2019-05-18T07:18:27.496Z,1005.23
2019-05-18T07:19:27.677Z,1005.23
2019-05-18T07:20:27.503Z,1005.13
2019-05-18T07:21:27.536Z,1005.11
2019-05-18T07:22:27.535Z,1005.09
2019-05-18T07:23:27.565Z,1005.09
2019-05-18T07:24:27.535Z,1005.05
2019-05-18T07:25:27.557Z,1005.05
2019-05-18T07:26:27.587Z,1005.03
2019-05-18T07:27:27.593Z,1005.07
2019-05-18T07:28:27.623Z,1005.07
2019-05-18T07:29:27.604Z,1005.04
2019-05-18T07:30:27.630Z,1005.04
2019-05-18T07:31:27.672Z,1005.07
2019-05-18T07:32:27.647Z,1005.05
2019-05-18T07:33:27.698Z,1005.07
2019-05-18T07:34:27.676Z,1005.05
2019-05-18T07:35:27.739Z,1005.05
2019-05-18T07:36:27.721Z,1005.04
2019-05-18T07:37:27.775Z,1005.03
2019-05-18T07:38:27.726Z,1005.01
2019-05-18T07:39:27.736Z,1005.00
2019-05-18T07:40:27.825Z,1004.99
2019-05-18T07:41:27.793Z,1004.99
2019-05-18T07:42:27.768Z,1004.99
2019-05-18T07:43:27.828Z,1004.96
2019-05-18T07:44:27.830Z,1004.99
2019-05-18T07:45:27.817Z,1004.98
2019-05-18T07:46:27.843Z,1004.98
2019-05-18T07:47:27.852Z,1005.06
2019-05-18T07:48:27.839Z,1005.07
2019-05-18T07:49:27.845Z,1005.05
2019-05-18T07:50:27.845Z,1005.15
2019-05-18T07:51:36.653Z,1005.02
2019-05-18T07:52:27.901Z,1005.02
2019-05-18T07:53:27.942Z,1004.99
2019-05-18T07:54:27.902Z,1004.98
2019-05-18T07:55:27.904Z,1004.96
2019-05-18T07:56:27.938Z,1004.95
2019-05-18T07:57:27.921Z,1004.98
2019-05-18T07:58:27.970Z,1004.95
2019-05-18T07:59:27.964Z,1004.95
2019-05-18T08:00:27.958Z,1004.86
2019-05-18T08:01:28.023Z,1004.92
2019-05-18T08:02:28.040Z,1004.89
2019-05-18T08:03:28.011Z,1004.84
2019-05-18T08:04:28.012Z,1004.79
2019-05-18T08:05:28.021Z,1004.79
2019-05-18T08:06:28.049Z,1004.79
2019-05-18T08:07:28.066Z,1004.76
2019-05-18T08:08:28.044Z,1004.77
2019-05-18T08:09:28.075Z,1004.74
2019-05-18T08:10:28.120Z,1004.74
2019-05-18T08:11:28.108Z,1004.74
2019-05-18T08:12:28.139Z,1004.71
2019-05-18T08:13:28.156Z,1004.68
2019-05-18T08:14:28.141Z,1004.70
2019-05-18T08:15:28.146Z,1004.79
2019-05-18T08:16:28.154Z,1004.71
2019-05-18T08:17:28.174Z,1004.73
2019-05-18T08:18:28.187Z,1004.77
2019-05-18T08:19:28.174Z,1004.70
2019-05-18T08:20:28.232Z,1004.76
2019-05-18T08:21:28.212Z,1004.70
2019-05-18T08:22:28.251Z,1004.66
2019-05-18T08:23:28.198Z,1004.67
2019-05-18T08:24:28.258Z,1004.81
2019-05-18T08:25:28.229Z,1004.68
2019-05-18T08:26:28.272Z,1004.67
2019-05-18T08:27:28.291Z,1004.69
2019-05-18T08:28:28.305Z,1004.77
2019-05-18T08:29:28.264Z,1004.65
2019-05-18T08:30:28.283Z,1004.68
2019-05-18T08:31:28.306Z,1004.65
2019-05-18T08:32:28.330Z,1004.64
2019-05-18T08:33:28.349Z,1004.63
2019-05-18T08:34:28.311Z,1004.60
2019-05-18T08:35:28.343Z,1004.63
2019-05-18T08:36:28.374Z,1004.53
2019-05-18T08:37:28.365Z,1004.56
2019-05-18T08:38:28.408Z,1004.55
2019-05-18T08:39:28.416Z,1004.48
2019-05-18T08:40:28.389Z,1004.57
2019-05-18T08:41:28.401Z,1004.49
2019-05-18T08:42:28.400Z,1004.44
2019-05-18T08:43:28.521Z,1004.47
2019-05-18T08:44:28.459Z,1004.38
2019-05-18T08:45:28.430Z,1004.40
2019-05-18T08:46:28.491Z,1004.45
2019-05-18T08:47:28.489Z,1004.43
2019-05-18T08:48:28.482Z,1004.36
2019-05-18T08:49:28.494Z,1004.31
2019-05-18T08:50:28.498Z,1004.29
2019-05-18T08:51:28.542Z,1004.35
2019-05-18T08:52:28.517Z,1004.26
2019-05-18T08:53:28.520Z,1004.30
2019-05-18T08:54:28.565Z,1004.27
2019-05-18T08:55:28.555Z,1004.28
2019-05-18T08:56:28.572Z,1004.27
2019-05-18T08:57:28.567Z,1004.26
2019-05-18T08:58:28.559Z,1004.25
2019-05-18T08:59:28.599Z,1004.28
2019-05-18T09:00:28.592Z,1004.31
2019-05-18T09:01:28.633Z,1004.22
2019-05-18T09:02:28.659Z,1004.26
2019-05-18T09:03:28.630Z,1004.24
2019-05-18T09:04:28.653Z,1004.23
2019-05-18T09:05:28.688Z,1004.32
2019-05-18T09:06:28.661Z,1004.26
2019-05-18T09:07:28.675Z,1004.18
2019-05-18T09:08:28.681Z,1004.24
2019-05-18T09:09:28.689Z,1004.24
2019-05-18T09:10:28.721Z,1004.25
2019-05-18T09:11:28.705Z,1004.21
2019-05-18T09:12:28.738Z,1004.25
2019-05-18T09:13:28.820Z,1004.20
2019-05-18T09:14:28.738Z,1004.22
2019-05-18T09:15:28.810Z,1004.17
2019-05-18T09:16:28.790Z,1004.20
2019-05-18T09:17:28.766Z,1004.21
2019-05-18T09:18:28.761Z,1004.22
2019-05-18T09:19:28.802Z,1004.15
2019-05-18T09:20:28.808Z,1004.10
2019-05-18T09:21:28.817Z,1004.10
2019-05-18T09:22:28.832Z,1004.14
2019-05-18T09:23:28.856Z,1004.08
2019-05-18T09:24:28.851Z,1004.05
2019-05-18T09:25:28.846Z,1004.14
2019-05-18T09:26:28.899Z,1004.01
2019-05-18T09:27:28.865Z,1004.06
2019-05-18T09:28:28.885Z,1004.03
2019-05-18T09:29:28.917Z,1003.95
2019-05-18T09:30:28.930Z,1004.03
2019-05-18T09:31:28.957Z,1003.99
2019-05-18T09:32:28.992Z,1003.96
2019-05-18T09:33:28.949Z,1003.97
2019-05-18T09:34:29.009Z,1004.03
2019-05-18T09:35:28.995Z,1003.99
2019-05-18T09:36:28.973Z,1003.99
2019-05-18T09:37:29.025Z,1003.98
2019-05-18T09:38:32.573Z,1003.94
2019-05-18T09:39:29.003Z,1003.92
2019-05-18T09:40:29.084Z,1003.94
2019-05-18T09:41:29.057Z,1003.96
2019-05-18T09:42:29.065Z,1003.94
2019-05-18T09:43:29.050Z,1003.94
2019-05-18T09:44:29.076Z,1003.92
2019-05-18T09:45:29.079Z,1003.81
2019-05-18T09:46:29.069Z,1004.01
2019-05-18T09:47:29.117Z,1003.83
2019-05-18T09:48:29.109Z,1003.84
2019-05-18T09:49:29.110Z,1003.84
2019-05-18T09:50:29.116Z,1003.83
2019-05-18T09:51:29.135Z,1003.75
2019-05-18T09:52:44.093Z,1003.77
2019-05-18T09:53:30.187Z,1003.74
2019-05-18T09:54:29.227Z,1003.79
2019-05-18T09:55:29.161Z,1003.80
2019-05-18T09:56:29.163Z,1003.71
2019-05-18T09:57:29.174Z,1003.73
2019-05-18T09:58:29.184Z,1003.73
2019-05-18T09:59:29.282Z,1003.77
2019-05-18T10:00:37.027Z,1003.80
2019-05-18T10:01:29.239Z,1003.79
2019-05-18T10:02:29.247Z,1003.76
2019-05-18T10:03:29.269Z,1003.71
2019-05-18T10:04:29.260Z,1003.71
2019-05-18T10:05:29.285Z,1003.83
2019-05-18T10:06:31.464Z,1003.75
2019-05-18T10:07:29.292Z,1003.73
2019-05-18T10:08:29.304Z,1003.70
2019-05-18T10:09:38.563Z,1003.79
2019-05-18T10:10:29.360Z,1003.60
2019-05-18T10:11:29.376Z,1003.64
2019-05-18T10:12:29.328Z,1003.67
2019-05-18T10:13:29.340Z,1003.64
2019-05-18T10:14:29.482Z,1003.61
2019-05-18T10:15:29.375Z,1003.66
2019-05-18T10:16:29.395Z,1003.67
2019-05-18T10:17:29.410Z,1003.70
2019-05-18T10:18:29.418Z,1003.64
2019-05-18T10:19:29.430Z,1003.53
2019-05-18T10:20:29.420Z,1003.61
2019-05-18T10:21:29.507Z,1003.60
2019-05-18T10:22:29.487Z,1003.78
2019-05-18T10:23:29.482Z,1003.70
2019-05-18T10:24:29.460Z,1003.66
2019-05-18T10:25:29.502Z,1003.66
2019-05-18T10:26:29.562Z,1003.68
2019-05-18T10:27:29.500Z,1003.60
2019-05-18T10:28:29.534Z,1003.54
2019-05-18T10:29:29.527Z,1003.56
2019-05-18T10:30:29.535Z,1003.53
2019-05-18T10:31:29.542Z,1003.56
2019-05-18T10:32:29.596Z,1003.62
2019-05-18T10:33:29.587Z,1003.58
2019-05-18T10:34:29.612Z,1003.55
2019-05-18T10:35:29.601Z,1003.53
2019-05-18T10:36:29.611Z,1003.54
2019-05-18T10:37:29.601Z,1003.55
2019-05-18T10:38:29.685Z,1003.54
2019-05-18T10:39:29.643Z,1003.49
2019-05-18T10:40:29.651Z,1003.53
2019-05-18T10:41:29.667Z,1003.51
2019-05-18T10:42:29.666Z,1003.44
2019-05-18T10:43:29.709Z,1003.46
2019-05-18T10:44:29.731Z,1003.42
2019-05-18T10:45:29.693Z,1003.44
2019-05-18T10:46:29.718Z,1003.41
2019-05-18T10:47:29.769Z,1003.51
2019-05-18T10:48:29.771Z,1003.41
2019-05-18T10:49:29.774Z,1003.33
2019-05-18T10:50:29.813Z,1003.26
2019-05-18T10:51:29.786Z,1003.25
2019-05-18T10:52:29.784Z,1003.29
2019-05-18T10:53:29.820Z,1003.36
2019-05-18T10:54:29.822Z,1003.39
2019-05-18T10:55:29.847Z,1003.42
2019-05-18T10:56:31.310Z,1003.50
2019-05-18T10:57:29.837Z,1003.38
2019-05-18T10:58:29.885Z,1003.28
2019-05-18T10:59:29.860Z,1003.26
2019-05-18T11:00:29.906Z,1003.33
2019-05-18T11:01:29.914Z,1003.21
2019-05-18T11:02:29.909Z,1003.23
2019-05-18T11:03:29.972Z,1003.22
2019-05-18T11:04:29.936Z,1003.25
2019-05-18T11:05:29.999Z,1003.30
2019-05-18T11:06:29.974Z,1003.23
2019-05-18T11:07:29.956Z,1003.13
2019-05-18T11:08:31.385Z,1003.20
2019-05-18T11:09:30.015Z,1003.14
2019-05-18T11:10:30.009Z,1003.24
2019-05-18T11:11:30.028Z,1003.12
2019-05-18T11:12:30.035Z,1003.10
2019-05-18T11:13:30.035Z,1003.21
2019-05-18T11:14:30.058Z,1003.11
2019-05-18T11:15:30.076Z,1003.19
2019-05-18T11:16:30.207Z,1003.08
2019-05-18T11:17:30.092Z,1003.04
2019-05-18T11:18:30.447Z,1003.12
2019-05-18T11:19:30.124Z,1003.14
2019-05-18T11:20:30.145Z,1003.09
2019-05-18T11:21:30.197Z,1003.18
2019-05-18T11:22:30.220Z,1003.08
2019-05-18T11:23:42.811Z,1003.11
2019-05-18T11:24:30.240Z,1003.14
2019-05-18T11:25:30.187Z,1003.09
2019-05-18T11:26:30.196Z,1003.07
2019-05-18T11:27:30.204Z,1003.08
2019-05-18T11:28:30.231Z,1003.10
2019-05-18T11:29:30.309Z,1003.06
2019-05-18T11:30:30.255Z,1003.06
2019-05-18T11:31:30.292Z,1003.06
2019-05-18T11:32:30.298Z,1003.11
2019-05-18T11:33:30.275Z,1003.17
2019-05-18T11:34:30.325Z,1003.21
2019-05-18T11:35:30.331Z,1003.14
2019-05-18T11:36:30.352Z,1003.14
2019-05-18T11:37:30.363Z,1003.11
2019-05-18T11:38:30.474Z,1003.18
2019-05-18T11:39:30.357Z,1003.12
2019-05-18T11:40:30.389Z,1003.13
2019-05-18T11:41:30.379Z,1003.14
2019-05-18T11:42:30.447Z,1003.18
2019-05-18T11:43:30.557Z,1003.18
2019-05-18T11:44:30.419Z,1003.11
2019-05-18T11:45:30.463Z,1003.10
2019-05-18T11:46:30.503Z,1003.07
2019-05-18T11:47:30.471Z,1003.13
2019-05-18T11:48:30.492Z,1003.11
2019-05-18T11:49:30.490Z,1003.03
2019-05-18T11:50:30.522Z,1003.01
2019-05-18T11:51:30.512Z,1002.94
2019-05-18T11:52:30.552Z,1002.98
2019-05-18T11:53:30.578Z,1003.03
2019-05-18T11:54:30.552Z,1003.02
2019-05-18T11:55:30.598Z,1003.06
2019-05-18T11:56:30.592Z,1003.00
2019-05-18T11:57:30.618Z,1003.04
2019-05-18T11:58:30.646Z,1003.06
2019-05-18T11:59:31.044Z,1003.00
2019-05-18T12:00:30.623Z,1003.02
2019-05-18T12:01:30.634Z,1003.00
2019-05-18T12:02:30.645Z,1003.03
2019-05-18T12:03:30.730Z,1003.04
2019-05-18T12:04:30.699Z,1002.97
2019-05-18T12:05:30.719Z,1003.01